Aktualne dane pomiarowe

Uwaga, wersja testowa! Automatyczne pobieranie danych za pomocą narzędzi lub skryptów to umożliwiających jest zabronione.

Dane meteo z obszaru Polski uzyskane na podstawie depesz SYNOP pobieranych co godzinę z NWS. Najedź myszką na symbol przedstawiony w tabeli, aby uzyskać informacje co do jego znaczenia. Prosimy pamiętać, że to testowa wersja strony, która jeszcze nie jest ukończona. Stworzono również jest krótki FAQ dotyczący korzystania z tej podstrony Anomalie temperatury w chwili obecnej odniesione są do okresu referencyjnego 1951-2016. Okres ten będzie później zmieniony na 1981-2010. Kliknij ikonę aby pobrać plik CSV. Kliknij ikonę aby wygenerować mapę synoptyczną dla danego terminu.

Wybierz Datę:    

        

Wrocław-Strachowice (12424)

Dane terminowe dla wybranej stacji. Kliknij datę, aby otrzymać dane z tego terminu dla wszystkich stacji.

TemperaturaZachmurzenieWiatrCiśnienieOpadyPogoda
 Data t td wb tx tn tg rh  Nt Nl Cl Cm Ch ws wd g1 g2 wx mslp ppp ch 24h 12h t ww ww w1 w2  
2019-08-08 23:00:00 17.1 13.2 14.5--- 7850.0wx-3wx--31012.7 998.4 0.7---------
2019-08-08 22:00:00 17.4 13.7 14.9--- 7950.0wx-3wx--31012.8 998.5 1.0---------
2019-08-08 21:00:00 18.1 13.8 15.2--- 7650.0wx-wx3wx--31012.5 998.2 1.0---------
2019-08-08 20:00:00 18.7 12.9 15.0--- 6950.0wx-wx1wx---1012.0 997.7 0.6---------
2019-08-08 19:00:00 20.4 13.4 15.9--- 6450.0wxwxwxwx3wx--31011.7 997.5 0.7---------
2019-08-08 18:00:00 23.6 13.7 17.4 27.7 19.2- 5450.0wxwxwxwxwx3wx-1031011.2 997.2 0.2- 0.012wx---
2019-08-08 17:00:00 24.5 13.1 17.4--- 4950.0wxwxwxwxwx3wx--31011.1 997.1 0.2---wx---
2019-08-08 16:00:00 26.4 10.1 16.8--- 3650.0wxwxwxwxwx4wx---1010.7 996.8 -0.1---wx---
2019-08-08 15:00:00 27.6 11.6 17.9--- 3750.0wxwxwxwxwx5wx---1010.8 997.0 -0.2---------
2019-08-08 14:00:00 26.3 11.2 17.3--- 3950.0wxwxwxwxwx5wx-951010.8 996.9 -0.5---------
2019-08-08 13:00:00 27.5 10.7 17.5--- 3550.0wxwxwxwx4wx101041010.7 996.9 -0.7---------
2019-08-08 12:00:00 27.0 11.5 17.7--- 3850.0wxwxwxwx6wx-1061011.0 997.2 -0.2- 0.06------
2019-08-08 11:00:00 25.0 10.5 16.4--- 4050.0wxwxwxwx4wx9941011.3 997.4 -0.1---------
2019-08-08 10:00:00 25.1 13.0 17.6--- 4750.0wxwxwxwx4wx9941011.5 997.6 0.4---------
2019-08-08 09:00:00 23.8 14.5 17.9--- 5650.0wxwxwxwx4wx--41011.4 997.4 0.7---------
2019-08-08 08:00:00 22.1 15.2 17.6--- 6540.0wxwxwxwx4wx--41011.6 997.5 1.5---------
2019-08-08 07:00:00 20.6 15.6 17.2--- 7340.0wx-5wx--51011.4 997.2 1.5---------
2019-08-08 06:00:00 19.2 15.7 16.8 21.3 17.2 17 8040.0wx-wx5wx--51010.9 996.7 1.7 1.6 1.012----- 4.9
2019-08-08 05:00:00 18.0 15.8 16.4--- 8735.0wx-wxwx5wx---1010.3 996.0 1.1---------
2019-08-08 04:00:00 17.8 16.1 16.6--- 9035.0wxwxwxwx4wx---1010.0 995.7 1.5---------
2019-08-08 03:00:00 17.5 16.4 16.7--- 9335.0wxwxwxwx3wx--31009.3 995.0 1.0---------
2019-08-08 02:00:00 17.5 16.5 16.8--- 9435.0wxwxwxwx4wx--41009.2 994.9 1.0---------
2019-08-08 01:00:00 17.7 16.9 17.1--- 9535.0wxwxwxwx2wx--21008.5 994.2 0.6---------
2019-08-08 00:00:00 17.8 16.5 16.9--- 9225.0wxwxwx2wx---1008.2 994.0 0.7---wx-w1--
2019-08-07 23:00:00 18.8 17.6 17.9--- 9340.0wxwxwx4wx--41008.1 993.9 0.6---------
2019-08-07 22:00:00 18.8 17.6 17.9--- 9340.0wxwxwxwx3wx--31007.8 993.6 0.7---wx-w1--
2019-08-07 21:00:00 18.9 17.7 18.0--- 9315.0wxwxwxwx2wx--21007.5 993.3 1.0---wx-w1--
2019-08-07 20:00:00 19.8 17.9 18.4--- 8915.0wxwxwxwx3wx---1007.4 993.3 1.8---wx-w1w2--
2019-08-07 19:00:00 21.0 18.9 19.5--- 8815.0wxwxwxwx2wx---1007.0 992.9 1.5---wx---
2019-08-07 18:00:00 21.2 19.3 19.8 29.4 19.3- 8940.0wxwxwxwx1wx-1211006.4 992.3 0.5- 0.612wx-w1--
2019-08-07 17:00:00 26.1 17.2 20.2--- 5830.0wxwxwx5wx--51005.3 991.5 -0.4---wx---
2019-08-07 16:00:00 27.1 15.5 19.7--- 4950.0wxwxwxwx4wx--41005.2 991.4 -1.3---------
2019-08-07 15:00:00 27.5 15.5 19.8--- 4850.0wxwxwxwxwx5wx--51005.6 991.8 -1.4---------
2019-08-07 14:00:00 29.3 15.8 20.6--- 4450.0wxwxwxwxwx6wx---1005.6 991.9 -1.9---------
2019-08-07 13:00:00 28.3 15.9 20.3--- 4750.0wxwxwxwxwx3wx--31006.4 992.7 -1.7---------
2019-08-07 12:00:00 28.0 16.3 20.4--- 4940.0wxwxwxwx3wx-931006.9 993.2 -1.4--6wx-w1--
2019-08-07 11:00:00 26.2 17.0 20.1--- 5740.0wxwxwxwxwx4wx-941007.6 993.8 -0.7---------
2019-08-07 10:00:00 24.4 17.1 19.5--- 6440.0wxwxwxwxwx4wx--41008.3 994.4 0.2---------
2019-08-07 09:00:00 22.6 17.5 19.1--- 7340.0wx-wx3wx--31008.6 994.6 0.2---wx-w1--
2019-08-07 08:00:00 21.6 17.4 18.7--- 7740.0wx-wx3wx--31008.6 994.5 0.1---------
2019-08-07 07:00:00 20.8 17.4 18.4--- 8130.0wx-wx2wx--21008.3 994.2 -0.1---wx---
2019-08-07 06:00:00 19.3 17.3 17.9 25.3 16.2 15 8840.0wxwxwxwx2wx--21008.6 994.4 -0.2--12wx-w1- 7.9
2019-08-07 05:00:00 18.7 16.3 17.0--- 8640.0wx-wx1wx--11008.6 994.4 -0.1----22----
2019-08-07 04:00:00 18.0 15.8 16.4--- 8740.0wx-wx0----1008.5 994.3 -0.5---------
2019-08-07 03:00:00 16.3 14.8 15.2--- 9140.0wx-wx1wx--11008.9 994.6 -0.4---------
2019-08-07 02:00:00 18.1 15.7 16.4--- 8640.0wx-wxwx0---01008.7 994.5 -0.7---wx---
2019-08-07 01:00:00 18.2 15.8 16.5--- 8640.0wx-wx1wx--11009.0 994.8 0.2---------
2019-08-07 00:00:00 19.3 16.1 17.1--- 8240.0wx-wxwx2wx--21009.2 995.0 0.3- 0.06------
1.0 ms

 

Print Friendly, PDF & Email